Time;durP1;ratioP1;P1;durP2;ratioP2;P2;SDS_P1;SDS_P2;PMS_P1;PMS_P2;Temp;Humidity;BMP_temperature;BMP_pressure;BME280_temperature;BME280_humidity;BME280_pressure;Samples;Min_cycle;Max_cycle;Signal;HPM_P1;HPM_P2
2022/10/09 00:01:48;;;;;;;;;13.67;11.33;;;;;9.87;76.25;101953.22;5018675;28;46277;-75
2022/10/09 00:04:14;;;;;;;;;11.67;10.33;;;;;9.87;75.88;101957.72;5019236;28;45374;-76
2022/10/09 00:06:39;;;;;;;;;13.00;13.00;;;;;9.92;76.14;101969.59;5017935;28;45344;-75
2022/10/09 00:09:04;;;;;;;;;13.67;12.33;;;;;9.86;76.19;101962.16;5019094;28;45400;-74
2022/10/09 00:11:32;;;;;;;;;13.00;13.00;;;;;9.86;76.24;101964.81;5001212;28;47040;-75
2022/10/09 00:13:57;;;;;;;;;17.00;16.67;;;;;9.77;76.17;101955.88;5019123;28;45300;-74
2022/10/09 00:16:23;;;;;;;;;14.33;14.33;;;;;9.79;76.22;101958.41;5018893;28;45229;-75
2022/10/09 00:18:49;;;;;;;;;16.50;16.50;;;;;9.77;76.59;101955.03;5018975;28;45659;-75
2022/10/09 00:21:21;;;;;;;;;15.67;13.00;;;;;9.83;76.73;101967.75;5019138;28;46455;-75
2022/10/09 00:23:47;;;;;;;;;16.33;16.00;;;;;9.81;77.16;101959.94;5017615;28;45363;-75
2022/10/09 00:26:13;;;;;;;;;14.00;14.00;;;;;9.73;76.64;101957.16;5019077;28;45300;-75
2022/10/09 00:28:39;;;;;;;;;12.67;12.67;;;;;9.73;77.25;101965.94;5018859;28;45359;-75
2022/10/09 00:31:08;;;;;;;;;14.00;13.67;;;;;9.67;77.25;101953.19;5018566;28;45410;-75
2022/10/09 00:33:35;;;;;;;;;12.00;12.00;;;;;9.67;76.99;101958.50;5018878;28;45387;-75
2022/10/09 00:36:10;;;;;;;;;15.33;13.67;;;;;9.62;77.40;101952.78;5017736;28;45549;-75
2022/10/09 00:38:36;;;;;;;;;9.00;9.00;;;;;9.63;77.53;101945.66;5018908;28;45299;-74
2022/10/09 00:41:02;;;;;;;;;14.00;11.00;;;;;9.59;77.73;101948.63;5018578;28;45434;-74
2022/10/09 00:43:43;;;;;;;;;9.67;9.33;;;;;9.60;77.67;101958.25;5018833;28;45260;-75
2022/10/09 00:46:34;;;;;;;;;10.00;9.33;;;;;9.55;77.85;101941.88;5016863;28;45350;-75
2022/10/09 00:49:22;;;;;;;;;10.00;9.67;;;;;9.56;77.68;101946.22;5018451;28;45310;-75
2022/10/09 00:51:49;;;;;;;;;11.00;11.00;;;;;9.53;77.85;101954.47;5020415;28;45409;-75
2022/10/09 00:54:18;;;;;;;;;8.00;8.00;;;;;9.50;77.85;101948.56;5004035;28;45441;-75
2022/10/09 00:56:43;;;;;;;;;9.33;9.33;;;;;9.54;78.15;101948.16;5017676;28;45308;-75
2022/10/09 00:59:10;;;;;;;;;11.67;11.67;;;;;9.52;77.51;101952.75;5011605;28;45445;-76
2022/10/09 01:01:37;;;;;;;;;16.33;11.33;;;;;9.50;77.75;101953.88;5021713;28;45416;-74
2022/10/09 01:04:03;;;;;;;;;15.33;12.67;;;;;9.44;77.87;101948.16;5021954;28;45383;-75
2022/10/09 01:06:46;;;;;;;;;11.33;11.33;;;;;9.47;78.01;101945.25;5021748;28;45278;-75
2022/10/09 01:09:16;;;;;;;;;12.67;11.67;;;;;9.47;77.95;101947.03;5020624;28;46159;-75
2022/10/09 01:11:55;;;;;;;;;14.00;12.33;;;;;9.40;77.80;101941.44;5021655;28;45645;-74
2022/10/09 01:14:38;;;;;;;;;12.33;12.33;;;;;9.38;78.34;101937.25;5020579;28;45976;-75
2022/10/09 01:17:31;;;;;;;;;15.00;12.33;;;;;9.39;77.99;101934.47;5021684;28;45283;-75
2022/10/09 01:20:23;;;;;;;;;12.00;10.67;;;;;9.35;78.02;101927.75;5017705;28;46254;-74
2022/10/09 01:23:05;;;;;;;;;12.00;10.67;;;;;9.29;77.90;101923.00;5010773;28;45537;-75
2022/10/09 01:25:39;;;;;;;;;12.67;9.67;;;;;9.31;78.24;101921.03;5021523;28;45442;-74
2022/10/09 01:28:06;;;;;;;;;11.67;10.33;;;;;9.27;78.45;101920.47;5021932;28;45370;-74
2022/10/09 01:30:33;;;;;;;;;13.33;12.33;;;;;9.19;78.24;101899.09;5021162;28;45318;-75
2022/10/09 01:33:00;;;;;;;;;9.00;9.00;;;;;9.21;78.39;101903.28;5020235;28;47198;-75
2022/10/09 01:35:25;;;;;;;;;13.00;11.67;;;;;9.20;78.22;101901.63;5003485;28;45844;-75
2022/10/09 01:37:53;;;;;;;;;11.67;10.67;;;;;9.25;78.49;101911.78;5021539;28;45327;-75
2022/10/09 01:40:20;;;;;;;;;10.67;10.67;;;;;9.22;78.32;101906.78;5003728;28;46177;-75
2022/10/09 01:42:45;;;;;;;;;10.67;10.67;;;;;9.13;78.41;101881.91;5003430;28;46098;-75
2022/10/09 01:45:13;;;;;;;;;11.33;11.33;;;;;9.13;78.48;101892.50;5021163;28;45938;-75
2022/10/09 01:47:39;;;;;;;;;8.00;8.00;;;;;9.02;78.43;101877.56;5021476;28;45365;-75
2022/10/09 01:50:10;;;;;;;;;7.00;7.00;;;;;9.11;78.84;101888.31;5021375;28;45297;-75
2022/10/09 01:52:41;;;;;;;;;9.33;8.33;;;;;9.09;79.25;101888.47;5019919;28;47679;-75
2022/10/09 01:55:31;;;;;;;;;7.33;7.33;;;;;9.10;79.03;101879.53;5021105;28;45489;-75
2022/10/09 01:58:18;;;;;;;;;7.33;7.33;;;;;9.05;79.41;101868.50;5017391;28;45316;-75
2022/10/09 02:00:51;;;;;;;;;10.00;8.00;;;;;9.05;79.43;101872.00;5020852;28;45376;-75
2022/10/09 02:03:17;;;;;;;;;8.33;8.00;;;;;9.03;79.23;101862.47;5020213;28;45263;-75
2022/10/09 02:05:46;;;;;;;;;10.00;8.00;;;;;9.01;79.13;101857.31;5021027;28;45436;-75
2022/10/09 02:08:17;;;;;;;;;9.00;9.00;;;;;8.94;79.26;101851.72;5021000;28;45443;-75
2022/10/09 02:10:45;;;;;;;;;7.67;7.67;;;;;9.01;78.88;101854.66;5019582;28;46275;-75
2022/10/09 02:13:11;;;;;;;;;16.00;12.00;;;;;8.96;78.97;101848.94;5020864;28;45363;-75
2022/10/09 02:15:49;;;;;;;;;9.67;9.00;;;;;8.96;79.46;101841.84;5020652;28;45378;-75
2022/10/09 02:18:22;;;;;;;;;10.67;10.67;;;;;8.91;79.65;101833.44;5021095;28;45469;-75
2022/10/09 02:20:54;;;;;;;;;10.00;10.00;;;;;8.91;79.66;101835.25;5020990;28;45593;-75
2022/10/09 02:23:22;;;;;;;;;0.33;0.33;;;;;8.81;80.11;101817.53;5020821;28;46468;-76
2022/10/09 02:25:48;;;;;;;;;11.33;11.33;;;;;8.81;80.29;101817.53;5020865;28;45319;-74
2022/10/09 02:28:13;;;;;;;;;13.00;11.00;;;;;8.87;80.37;101832.03;5020949;28;45276;-75
2022/10/09 02:31:12;;;;;;;;;13.67;12.00;;;;;8.89;80.71;101835.38;5020169;28;45398;-75
2022/10/09 02:33:37;;;;;;;;;9.00;8.33;;;;;8.81;81.17;101825.47;5018971;28;45387;-75
2022/10/09 02:36:03;;;;;;;;;12.00;12.00;;;;;8.73;81.06;101813.84;5020645;28;45327;-75
2022/10/09 02:38:29;;;;;;;;;11.00;9.00;;;;;8.70;81.23;101813.16;5019392;28;45330;-75
2022/10/09 02:40:59;;;;;;;;;9.00;9.00;;;;;8.68;81.52;101812.44;5019116;28;46978;-75
2022/10/09 02:43:24;;;;;;;;;13.67;13.67;;;;;8.68;81.30;101820.41;5019241;28;47155;-75
2022/10/09 02:45:50;;;;;;;;;13.67;12.67;;;;;8.60;81.29;101814.94;5019801;28;45363;-75
2022/10/09 02:48:15;;;;;;;;;17.00;13.33;;;;;8.63;81.74;101816.47;5002831;28;45398;-75
2022/10/09 02:50:40;;;;;;;;;16.00;14.00;;;;;8.67;81.60;101817.88;5018812;28;45470;-75
2022/10/09 02:53:06;;;;;;;;;15.67;15.33;;;;;8.63;81.60;101806.72;5020304;28;45464;-76
2022/10/09 02:55:31;;;;;;;;;11.00;11.00;;;;;8.66;81.61;101821.50;5020337;28;45327;-76
2022/10/09 02:57:56;;;;;;;;;13.00;13.00;;;;;8.61;81.59;101797.22;5016315;28;46122;-75
2022/10/09 03:00:22;;;;;;;;;14.67;11.67;;;;;8.67;81.97;101809.94;5018806;28;46151;-75
2022/10/09 03:02:47;;;;;;;;;13.00;13.00;;;;;8.64;81.75;101804.91;5020178;28;46257;-75
2022/10/09 03:05:12;;;;;;;;;13.00;12.00;;;;;8.70;82.13;101807.84;5019992;28;45390;-75
2022/10/09 03:07:37;;;;;;;;;13.67;13.67;;;;;8.66;81.63;101803.81;5020328;28;45561;-75
2022/10/09 03:10:03;;;;;;;;;12.33;12.33;;;;;8.67;81.99;101801.97;5022464;28;45443;-75
2022/10/09 03:12:28;;;;;;;;;13.67;12.00;;;;;8.67;82.18;101805.47;5010382;28;47751;-75
2022/10/09 03:14:54;;;;;;;;;13.00;13.00;;;;;8.66;81.90;101800.31;5011644;28;45843;-75
2022/10/09 03:17:19;;;;;;;;;13.67;13.67;;;;;8.65;81.71;101796.81;5020007;28;45256;-75
2022/10/09 03:19:44;;;;;;;;;12.33;12.33;;;;;8.67;81.73;101796.66;5019934;28;45529;-76
2022/10/09 03:22:10;;;;;;;;;15.00;14.00;;;;;8.57;81.77;101786.91;5019553;28;45401;-75
2022/10/09 03:24:35;;;;;;;;;9.33;9.33;;;;;8.59;82.01;101782.28;5020032;28;45376;-75
2022/10/09 03:27:00;;;;;;;;;12.33;12.33;;;;;8.58;81.64;101785.06;5019910;28;45474;-75
2022/10/09 03:29:26;;;;;;;;;11.67;11.67;;;;;8.56;82.01;101785.22;5019650;28;45362;-75
2022/10/09 03:31:51;;;;;;;;;12.33;12.00;;;;;8.45;82.25;101764.91;5018347;28;47110;-75
2022/10/09 03:34:16;;;;;;;;;11.67;10.00;;;;;8.43;82.00;101760.72;5002089;28;45969;-75
2022/10/09 03:36:42;;;;;;;;;14.67;14.00;;;;;8.46;82.41;101776.38;5018583;28;45340;-75
2022/10/09 03:39:07;;;;;;;;;13.00;12.00;;;;;8.40;82.29;101761.00;5019434;28;45615;-74
2022/10/09 03:41:33;;;;;;;;;11.50;11.00;;;;;8.38;82.53;101761.13;5019734;28;46296;-76
2022/10/09 03:43:58;;;;;;;;;13.00;10.67;;;;;8.42;82.69;101777.63;5019540;28;45485;-75
2022/10/09 03:46:24;;;;;;;;;16.67;14.67;;;;;8.40;82.91;101767.16;5019314;28;45415;-75
2022/10/09 03:48:49;;;;;;;;;11.00;9.67;;;;;8.38;82.45;101762.97;5018126;28;47110;-75
2022/10/09 03:51:14;;;;;;;;;11.33;9.00;;;;;8.41;82.53;101766.16;5019315;28;45456;-75
2022/10/09 03:53:40;;;;;;;;;10.33;8.67;;;;;8.47;82.49;101770.09;5019228;28;45265;-75
2022/10/09 03:56:05;;;;;;;;;9.67;9.67;;;;;8.44;82.40;101765.09;5019430;28;45439;-75
2022/10/09 03:58:31;;;;;;;;;9.00;9.00;;;;;8.46;82.57;101771.91;5017900;28;46447;-76
2022/10/09 04:00:56;;;;;;;;;8.67;8.67;;;;;8.43;82.72;101764.22;5018941;28;46447;-75
2022/10/09 04:03:21;;;;;;;;;11.67;11.67;;;;;8.41;82.39;101752.09;5019246;28;45203;-75
2022/10/09 04:05:47;;;;;;;;;12.67;12.33;;;;;8.43;82.88;101756.28;5019435;28;45993;-77
2022/10/09 04:08:12;;;;;;;;;16.00;14.67;;;;;8.49;82.91;101762.00;5019196;28;45430;-74
2022/10/09 04:10:37;;;;;;;;;14.00;12.00;;;;;8.45;82.69;101758.81;5019099;28;46481;-75
2022/10/09 04:13:03;;;;;;;;;7.33;6.67;;;;;8.45;82.82;101756.97;5019231;28;45262;-75
2022/10/09 04:15:28;;;;;;;;;13.67;13.67;;;;;8.42;82.78;101761.72;5001041;28;45707;-75
2022/10/09 04:17:54;;;;;;;;;9.67;9.67;;;;;8.37;82.43;101753.31;5019102;28;45293;-75
2022/10/09 04:20:20;;;;;;;;;11.33;11.33;;;;;8.46;82.24;101771.06;5019017;28;45354;-75
2022/10/09 04:22:45;;;;;;;;;13.33;11.00;;;;;8.43;82.01;101764.22;5019199;28;45320;-74
2022/10/09 04:25:10;;;;;;;;;11.00;9.33;;;;;8.37;81.89;101759.47;5018950;28;45346;-75
2022/10/09 04:27:36;;;;;;;;;11.00;11.00;;;;;8.34;82.00;101751.78;5022017;28;45593;-75
2022/10/09 04:30:02;;;;;;;;;10.33;10.33;;;;;8.33;82.31;101750.13;5004171;28;47080;-75
2022/10/09 04:32:27;;;;;;;;;12.00;11.67;;;;;8.29;82.28;101746.88;5022337;28;45399;-75
2022/10/09 04:34:52;;;;;;;;;13.67;13.67;;;;;8.26;82.24;101738.38;5004480;28;45367;-75
2022/10/09 04:37:18;;;;;;;;;13.33;13.00;;;;;8.26;82.50;101744.50;5022412;28;45488;-75
2022/10/09 04:39:43;;;;;;;;;15.00;13.00;;;;;8.24;82.28;101735.88;5022374;28;46098;-76
2022/10/09 04:42:08;;;;;;;;;15.00;14.00;;;;;8.18;82.06;101725.81;5022221;28;45351;-75
2022/10/09 04:44:34;;;;;;;;;11.33;11.33;;;;;8.18;82.63;101731.97;5022555;28;45340;-75
2022/10/09 04:46:59;;;;;;;;;12.33;9.00;;;;;8.18;82.47;101729.31;5021891;28;45212;-75
2022/10/09 04:49:24;;;;;;;;;10.75;10.75;;;;;8.19;82.51;101732.78;5022118;28;45452;-75
2022/10/09 04:51:50;;;;;;;;;12.67;12.00;;;;;8.18;82.42;101729.31;5022317;28;45318;-75
2022/10/09 04:54:15;;;;;;;;;10.33;10.33;;;;;8.22;82.93;101743.09;5022329;28;45383;-75
2022/10/09 04:56:41;;;;;;;;;6.00;6.00;;;;;8.15;82.12;101734.88;5017586;28;47346;-75
2022/10/09 04:59:06;;;;;;;;;12.25;12.25;;;;;8.10;82.13;101726.47;5012551;28;45427;-75
2022/10/09 05:01:31;;;;;;;;;9.67;9.67;;;;;8.15;82.22;101741.97;5021753;28;45233;-75
2022/10/09 05:03:57;;;;;;;;;10.67;10.67;;;;;8.09;82.38;101740.69;5022433;28;45304;-75
2022/10/09 05:06:23;;;;;;;;;11.33;11.33;;;;;8.02;82.35;101727.13;5021643;28;45491;-75
2022/10/09 05:08:49;;;;;;;;;14.33;12.33;;;;;8.04;82.54;101733.16;5022065;28;45570;-75
2022/10/09 05:11:20;;;;;;;;;13.33;13.00;;;;;8.06;82.75;101735.66;5004014;28;45922;-75
2022/10/09 05:13:48;;;;;;;;;12.00;11.33;;;;;8.04;82.50;101733.16;5022153;28;45236;-76
2022/10/09 05:16:17;;;;;;;;;14.33;11.33;;;;;7.94;82.56;101719.03;5020236;28;46143;-75
2022/10/09 05:19:02;;;;;;;;;13.00;13.00;;;;;7.98;83.05;101724.88;5021851;28;45510;-74
2022/10/09 05:21:28;;;;;;;;;11.67;11.00;;;;;7.96;82.73;101728.50;5003655;28;45965;-75
2022/10/09 05:23:54;;;;;;;;;14.00;13.00;;;;;7.90;82.47;101722.91;5021681;28;45320;-75
2022/10/09 05:26:22;;;;;;;;;13.67;12.00;;;;;7.82;82.58;101715.63;5020391;28;47392;-75
2022/10/09 05:28:48;;;;;;;;;10.33;10.33;;;;;7.89;82.65;101730.00;5020045;28;47898;-75
2022/10/09 05:31:28;;;;;;;;;11.67;11.67;;;;;7.87;82.74;101724.00;5021400;28;45379;-75
2022/10/09 05:33:56;;;;;;;;;11.33;11.33;;;;;7.88;83.24;101722.19;5021633;28;45490;-74
2022/10/09 05:36:22;;;;;;;;;9.00;8.67;;;;;7.86;82.78;101714.41;5021545;28;45311;-75
2022/10/09 05:38:47;;;;;;;;;6.00;6.00;;;;;7.89;83.11;101719.44;5020111;28;46010;-75
2022/10/09 05:41:15;;;;;;;;;14.00;9.00;;;;;7.88;83.46;101719.56;5021705;28;45485;-75
2022/10/09 05:43:43;;;;;;;;;12.67;11.00;;;;;7.86;83.20;101711.75;5003652;28;45385;-75
2022/10/09 05:46:14;;;;;;;;;10.67;10.67;;;;;7.88;82.91;101709.81;5020761;28;45495;-75
2022/10/09 05:48:42;;;;;;;;;11.67;11.67;;;;;7.86;83.35;101701.16;5021189;28;46528;-75
2022/10/09 05:51:13;;;;;;;;;8.67;8.67;;;;;7.87;83.15;101704.66;5021130;28;45371;-75
2022/10/09 05:53:40;;;;;;;;;9.67;9.67;;;;;7.80;83.60;101685.81;5003435;28;45400;-75
2022/10/09 05:56:22;;;;;;;;;11.67;8.33;;;;;7.86;83.05;101698.50;5021124;28;45473;-75
2022/10/09 05:59:12;;;;;;;;;9.33;9.33;;;;;7.89;82.99;101703.53;4990900;28;47326;-75
2022/10/09 06:01:43;;;;;;;;;14.00;14.00;;;;;7.91;83.27;101701.63;5019641;28;45392;-75
2022/10/09 06:04:17;;;;;;;;;10.33;9.00;;;;;7.93;82.92;101704.13;5021347;28;45361;-75
2022/10/09 06:06:45;;;;;;;;;9.33;9.33;;;;;7.92;82.62;101711.22;5020862;28;45449;-75
2022/10/09 06:09:11;;;;;;;;;9.00;9.00;;;;;7.96;82.89;101706.47;5021006;28;45660;-75
2022/10/09 06:11:38;;;;;;;;;8.50;8.50;;;;;7.96;82.53;101702.03;5021001;28;45288;-75
2022/10/09 06:14:05;;;;;;;;;10.67;10.33;;;;;7.92;83.11;101697.97;5021263;28;45386;-75
2022/10/09 06:16:36;;;;;;;;;7.00;7.00;;;;;7.93;82.97;101697.00;5019339;28;45961;-75
2022/10/09 06:19:03;;;;;;;;;9.00;8.67;;;;;7.93;82.63;101696.19;5019394;28;48364;-75
2022/10/09 06:21:28;;;;;;;;;8.67;7.00;;;;;7.91;82.76;101701.63;5019539;28;45739;-75
2022/10/09 06:23:56;;;;;;;;;9.67;9.00;;;;;7.91;82.76;101704.25;5020712;28;45851;-75
2022/10/09 06:26:23;;;;;;;;;11.00;11.00;;;;;7.87;83.19;101697.53;5020957;28;45362;-76
2022/10/09 06:28:50;;;;;;;;;5.67;5.67;;;;;7.82;82.98;101686.53;5020482;28;45653;-75
2022/10/09 06:31:18;;;;;;;;;11.67;10.00;;;;;7.82;82.82;101689.16;5018938;28;45430;-75
2022/10/09 06:33:45;;;;;;;;;13.67;12.00;;;;;7.89;82.85;101692.94;5020705;28;45354;-75
2022/10/09 06:36:19;;;;;;;;;12.67;10.33;;;;;7.92;83.34;101700.63;5020701;28;45360;-75
2022/10/09 06:38:45;;;;;;;;;11.00;11.00;;;;;7.95;83.21;101691.56;5020447;28;46338;-75
2022/10/09 06:41:13;;;;;;;;;11.00;11.00;;;;;7.93;83.42;101691.72;5019343;28;45732;-75
2022/10/09 06:43:39;;;;;;;;;10.00;10.00;;;;;7.98;83.29;101695.75;5002731;28;45334;-75
2022/10/09 06:46:08;;;;;;;;;9.33;9.33;;;;;7.98;82.94;101699.25;5019689;28;45359;-76
2022/10/09 06:48:35;;;;;;;;;8.50;8.50;;;;;7.89;82.82;101685.00;5018349;28;47594;-76
2022/10/09 06:51:01;;;;;;;;;12.00;12.00;;;;;7.91;82.96;101688.38;5020050;28;45351;-79
2022/10/09 06:53:27;;;;;;;;;11.00;11.00;;;;;7.94;83.39;101684.63;5020435;28;45524;-75
2022/10/09 06:55:54;;;;;;;;;11.00;11.00;;;;;7.98;83.48;101683.38;5010782;28;45535;-75
2022/10/09 06:58:19;;;;;;;;;12.33;11.00;;;;;8.02;83.11;101691.91;5006094;28;46213;-75
2022/10/09 07:00:44;;;;;;;;;8.33;8.33;;;;;8.02;83.75;101682.13;5018558;28;46056;-76
2022/10/09 07:03:10;;;;;;;;;11.33;11.33;;;;;8.00;84.00;101685.88;5020333;28;45266;-74
2022/10/09 07:05:35;;;;;;;;;12.00;12.00;;;;;8.05;83.67;101691.63;5002229;28;47184;-75
2022/10/09 07:08:00;;;;;;;;;13.67;13.00;;;;;8.02;84.20;101676.84;5020092;28;45589;-76
2022/10/09 07:10:26;;;;;;;;;13.00;12.33;;;;;8.18;84.05;101692.22;5019806;28;45383;-77
2022/10/09 07:12:51;;;;;;;;;13.00;12.33;;;;;8.13;83.78;101681.19;5002389;28;45342;-75
2022/10/09 07:15:17;;;;;;;;;13.00;12.33;;;;;8.18;84.36;101684.28;5019568;28;45368;-76
2022/10/09 07:17:42;;;;;;;;;12.67;11.67;;;;;8.21;84.08;101677.88;5019977;28;46399;-76
2022/10/09 07:20:07;;;;;;;;;14.33;10.67;;;;;8.28;84.00;101681.66;5001666;28;45459;-79
2022/10/09 07:22:33;;;;;;;;;11.33;10.33;;;;;8.30;84.29;101679.72;5022074;28;45516;-78
2022/10/09 07:24:58;;;;;;;;;14.67;13.67;;;;;8.30;84.75;101676.22;5004580;28;45871;-78
2022/10/09 07:27:23;;;;;;;;;12.67;11.00;;;;;8.39;84.87;101677.22;5025302;28;46346;-78
2022/10/09 07:29:49;;;;;;;;;15.33;15.33;;;;;8.45;84.40;101681.97;5028274;28;45332;-78
2022/10/09 07:32:14;;;;;;;;;14.33;14.33;;;;;8.52;84.90;101675.16;5020145;28;45778;-78
2022/10/09 07:34:40;;;;;;;;;12.00;11.00;;;;;8.62;85.19;101674.34;5019833;28;45467;-78
2022/10/09 07:37:06;;;;;;;;;11.00;11.00;;;;;8.67;85.23;101680.91;5020460;28;45419;-79
2022/10/09 07:39:31;;;;;;;;;13.67;13.00;;;;;8.73;85.47;101663.59;5020140;28;45462;-79
2022/10/09 07:41:56;;;;;;;;;13.67;13.00;;;;;8.79;84.94;101670.16;5018398;28;45748;-81
2022/10/09 07:44:22;;;;;;;;;12.00;11.33;;;;;8.87;85.28;101672.13;5019370;28;45716;-80
2022/10/09 07:46:50;;;;;;;;;15.67;13.00;;;;;8.92;85.51;101665.41;5019095;28;46295;-78
2022/10/09 07:49:15;;;;;;;;;12.33;12.33;;;;;9.05;85.33;101673.09;5019351;28;45237;-78
2022/10/09 07:51:40;;;;;;;;;11.33;11.00;;;;;9.15;85.62;101677.53;5010051;28;45534;-77
2022/10/09 07:54:06;;;;;;;;;13.33;11.33;;;;;9.22;85.17;101678.66;5013077;28;45354;-76
2022/10/09 07:56:34;;;;;;;;;13.00;13.00;;;;;9.31;85.02;101677.78;5019093;28;45465;-77
2022/10/09 07:59:19;;;;;;;;;12.33;10.67;;;;;9.41;85.05;101669.81;5019111;28;45476;-76
2022/10/09 08:01:45;;;;;;;;;9.33;9.33;;;;;9.51;85.02;101668.94;5018054;28;45509;-79
2022/10/09 08:04:10;;;;;;;;;9.00;9.00;;;;;9.51;84.79;101656.50;5018631;28;45346;-78
2022/10/09 08:06:36;;;;;;;;;11.00;11.00;;;;;9.63;85.51;101662.47;5018575;28;46450;-76
2022/10/09 08:09:04;;;;;;;;;10.33;10.33;;;;;9.75;85.04;101672.94;5000814;28;45768;-76
2022/10/09 08:11:30;;;;;;;;;9.33;9.33;;;;;9.80;85.04;101668.00;5001147;28;45483;-77
2022/10/09 08:13:56;;;;;;;;;14.33;11.00;;;;;9.91;84.44;101657.19;5018455;28;45870;-78
2022/10/09 08:16:23;;;;;;;;;15.67;15.67;;;;;9.93;84.26;101649.91;5018776;28;45490;-76
2022/10/09 08:18:48;;;;;;;;;12.33;11.00;;;;;9.98;84.68;101647.66;5001200;28;45972;-75
2022/10/09 08:21:17;;;;;;;;;12.33;12.33;;;;;10.05;84.62;101653.22;4999530;28;45370;-76
2022/10/09 08:23:43;;;;;;;;;12.67;12.67;;;;;10.13;84.57;101651.63;5018910;28;45476;-76
2022/10/09 08:26:17;;;;;;;;;10.00;10.00;;;;;10.19;84.56;101638.59;5018491;28;45465;-76
2022/10/09 08:28:42;;;;;;;;;13.67;12.67;;;;;10.25;84.77;101645.13;5018689;28;45256;-76
2022/10/09 08:31:12;;;;;;;;;11.00;10.33;;;;;10.38;84.49;101644.75;5016994;28;45409;-77
2022/10/09 08:33:38;;;;;;;;;10.67;10.00;;;;;10.42;84.74;101638.16;5018785;28;45921;-76
2022/10/09 08:36:06;;;;;;;;;11.67;11.67;;;;;10.50;84.64;101639.28;5000598;28;48509;-77
2022/10/09 08:38:32;;;;;;;;;11.33;11.33;;;;;10.56;84.90;101628.84;5002539;28;45309;-79
2022/10/09 08:41:05;;;;;;;;;12.67;12.67;;;;;10.65;84.71;101632.41;5011101;28;45231;-77
2022/10/09 08:43:34;;;;;;;;;14.67;13.67;;;;;10.65;84.97;101623.63;4978564;28;46513;-76
2022/10/09 08:46:05;;;;;;;;;12.33;10.00;;;;;10.77;85.12;101632.19;5000031;28;47216;-76
2022/10/09 08:48:37;;;;;;;;;11.33;10.33;;;;;10.89;85.24;101628.28;5000504;28;45769;-76
2022/10/09 08:51:08;;;;;;;;;11.00;11.00;;;;;10.95;85.00;101622.34;5018620;28;45385;-76
2022/10/09 08:53:49;;;;;;;;;9.67;8.00;;;;;11.05;85.34;101611.59;5018303;28;45349;-76
2022/10/09 08:56:14;;;;;;;;;7.67;7.67;;;;;11.14;84.97;101614.34;5018353;28;45276;-75
2022/10/09 08:58:42;;;;;;;;;9.00;8.67;;;;;11.19;85.16;101615.53;5000700;28;45268;-76
2022/10/09 09:01:21;;;;;;;;;6.33;6.33;;;;;11.27;85.21;101619.22;5018368;28;45252;-77
2022/10/09 09:04:05;;;;;;;;;10.00;8.00;;;;;11.46;84.90;101613.69;5018286;28;45452;-77
2022/10/09 09:06:48;;;;;;;;;7.67;6.67;;;;;11.55;84.86;101611.88;5017910;28;45410;-75
2022/10/09 09:09:29;;;;;;;;;9.67;9.67;;;;;11.60;84.61;101592.78;5018332;28;45468;-76
2022/10/09 09:12:13;;;;;;;;;9.00;9.00;;;;;11.72;84.50;101607.47;5017106;28;45641;-76
2022/10/09 09:15:05;;;;;;;;;6.00;6.00;;;;;11.82;84.41;101604.69;5021653;28;45379;-76
2022/10/09 09:17:52;;;;;;;;;10.00;9.00;;;;;11.85;84.92;101584.88;5014577;28;45379;-77
2022/10/09 09:20:35;;;;;;;;;7.00;7.00;;;;;12.00;84.58;101582.41;5018316;28;45336;-79
2022/10/09 09:23:01;;;;;;;;;6.33;6.33;;;;;12.14;83.91;101590.78;5021359;28;45423;-76
2022/10/09 09:25:39;;;;;;;;;7.00;7.00;;;;;12.31;83.32;101571.19;5021108;28;45618;-76
2022/10/09 09:28:28;;;;;;;;;6.33;6.33;;;;;12.50;82.95;101577.19;5003214;28;47962;-78
2022/10/09 09:30:57;;;;;;;;;8.00;6.67;;;;;12.62;82.57;101575.00;5020763;28;45312;-77
2022/10/09 09:33:36;;;;;;;;;6.33;6.33;;;;;12.82;82.39;101582.66;5005979;28;45290;-79
2022/10/09 09:36:18;;;;;;;;;7.00;7.00;;;;;12.93;82.25;101563.63;5000404;28;46180;-81
2022/10/09 09:38:44;;;;;;;;;8.00;8.00;;;;;13.11;81.61;101557.28;5019217;28;46699;-78
2022/10/09 09:41:09;;;;;;;;;6.33;5.00;;;;;13.26;81.25;101555.53;5022580;28;45691;-78
2022/10/09 09:43:35;;;;;;;;;7.33;6.00;;;;;13.41;80.41;101543.31;5021043;28;45360;-79
2022/10/09 09:46:01;;;;;;;;;7.00;4.67;;;;;13.59;80.56;101543.09;5002302;28;45980;-77
2022/10/09 09:48:34;;;;;;;;;8.33;7.33;;;;;13.75;79.73;101547.53;5020694;28;45446;-76
2022/10/09 09:51:04;;;;;;;;;6.00;6.00;;;;;13.90;79.15;101542.25;5020653;28;45331;-75
2022/10/09 09:53:38;;;;;;;;;5.00;5.00;;;;;14.06;78.65;101533.28;5020989;28;45359;-76
2022/10/09 09:56:05;;;;;;;;;5.00;4.33;;;;;14.22;77.97;101529.66;5018314;28;45355;-79
2022/10/09 09:58:35;;;;;;;;;5.00;5.00;;;;;14.44;77.49;101527.16;5003273;28;45392;-77
2022/10/09 10:01:02;;;;;;;;;6.67;6.67;;;;;14.59;76.72;101526.34;5003401;28;45310;-79
2022/10/09 10:03:29;;;;;;;;;4.67;4.67;;;;;14.72;76.52;101529.22;5020958;28;45279;-76
2022/10/09 10:05:54;;;;;;;;;6.00;5.00;;;;;14.82;75.96;101515.63;5014612;28;45499;-75
2022/10/09 10:08:21;;;;;;;;;6.00;5.00;;;;;14.92;75.53;101515.34;5011570;28;46376;-77
2022/10/09 10:10:48;;;;;;;;;7.00;5.67;;;;;15.02;75.19;101515.91;5020008;28;45381;-78
2022/10/09 10:13:26;;;;;;;;;8.33;7.00;;;;;15.03;75.32;101514.06;5002875;28;45385;-79
2022/10/09 10:15:54;;;;;;;;;7.00;7.00;;;;;15.05;75.21;101506.66;5019064;28;45901;-77
2022/10/09 10:18:23;;;;;;;;;5.00;5.00;;;;;15.07;75.33;101501.97;5020641;28;45348;-75
2022/10/09 10:20:52;;;;;;;;;4.33;4.33;;;;;15.12;75.13;101485.34;5019258;28;45337;-79
2022/10/09 10:23:33;;;;;;;;;12.67;11.00;;;;;15.19;74.29;101486.25;5020706;28;45343;-79
2022/10/09 10:26:04;;;;;;;;;7.00;7.00;;;;;15.31;74.47;101493.78;5020501;28;45369;-78
2022/10/09 10:28:48;;;;;;;;;7.00;5.33;;;;;15.29;73.51;101483.28;5020447;28;46544;-77
2022/10/09 10:31:30;;;;;;;;;6.33;5.00;;;;;15.26;73.90;101470.25;5020122;28;45501;-77
2022/10/09 10:33:56;;;;;;;;;4.00;4.00;;;;;15.35;73.66;101474.50;5020703;28;45429;-74
2022/10/09 10:36:24;;;;;;;;;5.00;5.00;;;;;15.46;73.33;101469.66;5020431;28;45504;-76
2022/10/09 10:39:07;;;;;;;;;4.67;4.67;;;;;15.63;73.67;101476.44;5018925;28;47056;-75
2022/10/09 10:41:44;;;;;;;;;6.00;5.00;;;;;15.70;73.34;101460.44;5020158;28;45378;-77
2022/10/09 10:44:41;;;;;;;;;7.00;5.00;;;;;15.94;72.98;101471.78;5020466;28;45327;-78
2022/10/09 10:47:15;;;;;;;;;4.00;4.00;;;;;16.08;73.02;101459.38;5020085;28;45379;-77
2022/10/09 10:49:40;;;;;;;;;5.00;4.00;;;;;16.21;72.30;101453.28;5020078;28;45944;-79
2022/10/09 10:52:15;;;;;;;;;5.33;4.00;;;;;16.35;71.58;101462.28;5006432;28;45307;-77
2022/10/09 10:55:08;;;;;;;;;7.00;5.67;;;;;16.44;70.56;101446.84;4999980;28;45336;-77
2022/10/09 10:58:02;;;;;;;;;5.00;5.00;;;;;16.46;69.86;101443.97;5001405;28;45403;-78
2022/10/09 11:00:28;;;;;;;;;5.00;4.00;;;;;16.49;70.03;101433.66;4999726;28;45790;-78
2022/10/09 11:03:30;;;;;;;;;4.00;4.00;;;;;16.59;69.90;101443.22;4998559;28;45428;-77
2022/10/09 11:06:07;;;;;;;;;2.00;2.00;;;;;16.62;69.47;101435.63;4982124;28;45652;-78
2022/10/09 11:08:48;;;;;;;;;3.33;2.67;;;;;16.69;69.41;101424.06;4999905;28;45424;-78
2022/10/09 11:11:32;;;;;;;;;4.00;3.00;;;;;16.82;67.76;101420.63;4996735;28;46834;-77
2022/10/09 11:14:15;;;;;;;;;2.33;2.33;;;;;16.98;67.61;101425.66;4999571;28;45458;-77
2022/10/09 11:17:16;;;;;;;;;4.00;4.00;;;;;17.11;67.87;101416.00;4997889;28;45270;-77
2022/10/09 11:19:58;;;;;;;;;3.00;3.00;;;;;17.31;66.67;101412.56;4999636;28;45367;-77
2022/10/09 11:22:45;;;;;;;;;5.33;4.00;;;;;17.48;66.54;101411.13;4998158;28;46929;-76
2022/10/09 11:25:20;;;;;;;;;3.00;3.00;;;;;17.63;66.54;101408.28;4998284;28;45985;-78
2022/10/09 11:27:52;;;;;;;;;3.67;3.67;;;;;17.74;66.74;101404.16;5001483;28;45210;-78
2022/10/09 11:30:18;;;;;;;;;5.33;5.33;;;;;17.79;65.66;101399.00;5005344;28;45334;-79
2022/10/09 11:33:01;;;;;;;;;7.33;6.33;;;;;17.94;65.60;101397.94;5013666;28;45570;-77
2022/10/09 11:35:50;;;;;;;;;16.00;15.00;;;;;18.03;65.25;101377.88;4995424;28;45313;-80